Time;durP1;ratioP1;P1;durP2;ratioP2;P2;SDS_P1;SDS_P2;PMS_P1;PMS_P2;Temp;Humidity;BMP_temperature;BMP_pressure;BME280_temperature;BME280_humidity;BME280_pressure;Samples;Min_cycle;Max_cycle;Signal;HPM_P1;HPM_P2
2022/11/11 00:02:12;;;;;;;7.68;3.90;;;;;;;;;;5082218;22;20249;-92
2022/11/11 00:04:38;;;;;;;5.28;3.80;;;;;;;;;;5035528;28;20185;-91
2022/11/11 00:07:04;;;;;;;5.45;4.05;;;;;;;;;;5036091;28;20196;-92
2022/11/11 00:09:30;;;;;;;5.07;3.80;;;;;;;;;;5035807;28;20202;-91
2022/11/11 00:11:56;;;;;;;12.15;3.80;;;;;;;;;;5035895;28;20828;-91
2022/11/11 00:14:22;;;;;;;6.47;4.43;;;;;;;;;;5034785;28;20197;-91
2022/11/11 00:25:06;;;;;;;10.88;5.18;;;;;;;;;;5036071;28;20556;-91
2022/11/11 00:27:32;;;;;;;4.10;3.28;;;;;;;;;;5034759;28;20189;-90
2022/11/11 00:29:58;;;;;;;7.22;4.53;;;;;;;;;;5035294;28;20560;-89
2022/11/11 00:32:29;;;;;;;8.68;4.55;;;;;;;;;;5034769;28;20174;-89
2022/11/11 00:37:41;;;;;;;5.57;3.78;;;;;;;;;;5035767;28;20209;-91
2022/11/11 00:40:08;;;;;;;5.97;3.90;;;;;;;;;;5035677;28;20181;-89
2022/11/11 00:42:34;;;;;;;13.10;4.22;;;;;;;;;;5034766;28;20210;-91
2022/11/11 00:45:00;;;;;;;6.78;4.70;;;;;;;;;;5022648;28;20200;-92
2022/11/11 00:52:56;;;;;;;9.13;4.32;;;;;;;;;;5041113;28;20657;-91
2022/11/11 00:55:22;;;;;;;7.57;4.80;;;;;;;;;;5040485;28;20182;-91
2022/11/11 00:57:48;;;;;;;7.22;4.00;;;;;;;;;;5039791;28;20182;-91
2022/11/11 01:00:14;;;;;;;5.75;5.25;;;;;;;;;;5039041;28;20193;-90
2022/11/11 01:02:40;;;;;;;7.80;4.57;;;;;;;;;;5022737;28;20272;-91
2022/11/11 01:05:06;;;;;;;4.55;4.13;;;;;;;;;;5021690;28;20185;-91
2022/11/11 01:07:32;;;;;;;5.43;4.43;;;;;;;;;;5038268;28;20232;-91
2022/11/11 01:09:58;;;;;;;6.13;4.55;;;;;;;;;;5039741;28;20210;-91
2022/11/11 01:12:24;;;;;;;8.35;5.78;;;;;;;;;;5039415;28;20193;-84
2022/11/11 01:14:50;;;;;;;13.00;5.80;;;;;;;;;;5040243;28;20182;-91
2022/11/11 01:17:16;;;;;;;12.27;5.13;;;;;;;;;;5040633;28;20173;-91
2022/11/11 01:19:42;;;;;;;8.10;4.88;;;;;;;;;;5045577;28;20201;-91
2022/11/11 01:22:08;;;;;;;8.15;4.60;;;;;;;;;;5046558;28;20171;-92
2022/11/11 01:24:36;;;;;;;10.18;5.10;;;;;;;;;;5023368;28;20189;-92
2022/11/11 01:27:02;;;;;;;6.57;4.80;;;;;;;;;;5039791;28;20185;-92
2022/11/11 01:29:28;;;;;;;9.00;5.05;;;;;;;;;;5040751;28;20202;-92
2022/11/11 01:31:54;;;;;;;8.23;5.35;;;;;;;;;;5041532;28;20581;-92
2022/11/11 01:34:21;;;;;;;7.05;4.35;;;;;;;;;;5041564;28;20179;-93
2022/11/11 01:36:47;;;;;;;5.32;4.60;;;;;;;;;;5026716;28;20202;-92
2022/11/11 01:39:13;;;;;;;6.85;5.03;;;;;;;;;;5039357;28;20197;-92
2022/11/11 01:41:39;;;;;;;6.75;4.97;;;;;;;;;;5040851;28;20212;-92
2022/11/11 01:44:11;;;;;;;10.07;4.85;;;;;;;;;;5040975;28;20213;-92
2022/11/11 01:46:42;;;;;;;5.90;5.05;;;;;;;;;;5041065;28;20177;-92
2022/11/11 01:49:29;;;;;;;8.73;5.22;;;;;;;;;;5044367;28;20178;-91
2022/11/11 01:52:04;;;;;;;5.25;4.25;;;;;;;;;;5045254;28;20174;-92
2022/11/11 01:54:34;;;;;;;5.57;5.00;;;;;;;;;;5040795;28;20231;-92
2022/11/11 01:57:03;;;;;;;9.18;4.65;;;;;;;;;;5039724;28;20189;-93
2022/11/11 01:59:30;;;;;;;11.82;5.97;;;;;;;;;;5041931;28;20642;-92
2022/11/11 02:01:57;;;;;;;11.40;4.75;;;;;;;;;;5042365;28;20678;-91
2022/11/11 02:07:09;;;;;;;6.10;5.10;;;;;;;;;;5035807;28;20185;-91
2022/11/11 02:09:36;;;;;;;6.63;4.85;;;;;;;;;;5036684;28;20202;-92
2022/11/11 02:14:52;;;;;;;5.70;4.80;;;;;;;;;;5039384;28;20165;-93
2022/11/11 02:17:18;;;;;;;8.63;4.80;;;;;;;;;;5039518;28;20166;-94
2022/11/11 02:20:01;;;;;;;5.82;4.50;;;;;;;;;;5021755;28;20182;-93
2022/11/11 02:22:27;;;;;;;8.23;4.72;;;;;;;;;;5039821;28;20181;-94
2022/11/11 02:24:53;;;;;;;7.53;4.97;;;;;;;;;;5038014;28;20173;-93
2022/11/11 02:27:21;;;;;;;8.20;5.07;;;;;;;;;;5039972;28;20439;-94
2022/11/11 02:29:49;;;;;;;7.38;4.82;;;;;;;;;;5037156;28;20241;-93
2022/11/11 02:32:15;;;;;;;6.07;4.40;;;;;;;;;;5039051;28;20257;-93
2022/11/11 02:34:41;;;;;;;8.25;4.70;;;;;;;;;;5038797;28;20174;-93
2022/11/11 02:37:08;;;;;;;7.05;4.63;;;;;;;;;;5038532;28;20189;-94
2022/11/11 02:39:37;;;;;;;5.95;4.60;;;;;;;;;;5038670;28;20630;-93
2022/11/11 02:42:09;;;;;;;12.50;5.15;;;;;;;;;;5039289;28;20622;-93
2022/11/11 02:44:35;;;;;;;6.53;4.70;;;;;;;;;;5022865;28;20185;-93
2022/11/11 02:47:01;;;;;;;9.50;4.72;;;;;;;;;;5040124;28;20173;-93
2022/11/11 02:49:27;;;;;;;5.70;4.40;;;;;;;;;;5039841;28;20198;-90
2022/11/11 02:51:53;;;;;;;6.00;4.68;;;;;;;;;;5042850;28;20185;-93
2022/11/11 02:54:19;;;;;;;10.07;4.88;;;;;;;;;;5043870;28;20204;-93
2022/11/11 02:59:46;;;;;;;6.50;4.43;;;;;;;;;;4998127;28;20198;-93
2022/11/11 03:02:13;;;;;;;7.07;4.15;;;;;;;;;;5029479;28;20224;-92
2022/11/11 03:04:39;;;;;;;6.25;4.03;;;;;;;;;;5039308;28;20261;-92
2022/11/11 03:07:05;;;;;;;7.47;4.75;;;;;;;;;;5039748;28;20166;-93
2022/11/11 03:09:31;;;;;;;6.03;4.18;;;;;;;;;;5037903;28;20202;-85
2022/11/11 03:11:57;;;;;;;7.22;3.70;;;;;;;;;;5036877;28;20170;-91
2022/11/11 03:14:24;;;;;;;7.53;4.45;;;;;;;;;;5038645;28;20268;-90
2022/11/11 03:19:34;;;;;;;5.05;4.45;;;;;;;;;;5042947;28;20317;-89
2022/11/11 03:22:02;;;;;;;6.07;4.03;;;;;;;;;;5032817;28;20622;-89
2022/11/11 03:25:36;;;;;;;8.00;4.00;;;;;;;;;;5030565;28;20242;-87
2022/11/11 03:27:14;;;;;;;5.55;4.03;;;;;;;;;;5030927;28;20293;-91
2022/11/11 03:29:41;;;;;;;8.63;3.75;;;;;;;;;;5030825;28;20728;-90
2022/11/11 03:32:07;;;;;;;8.35;3.75;;;;;;;;;;5031304;28;20569;-91
2022/11/11 03:34:34;;;;;;;4.45;4.05;;;;;;;;;;5030826;28;20209;-90
2022/11/11 03:39:45;;;;;;;4.25;3.60;;;;;;;;;;5037029;28;20178;-92
2022/11/11 03:42:11;;;;;;;4.90;3.63;;;;;;;;;;5036750;28;20185;-93
2022/11/11 03:44:37;;;;;;;5.40;3.45;;;;;;;;;;5035981;28;20182;-91
2022/11/11 03:47:03;;;;;;;6.85;3.30;;;;;;;;;;5019212;28;20533;-92
2022/11/11 03:49:29;;;;;;;5.50;3.00;;;;;;;;;;5034836;28;20205;-91
2022/11/11 03:51:55;;;;;;;4.75;2.70;;;;;;;;;;5018684;28;20198;-91
2022/11/11 03:54:21;;;;;;;3.40;3.10;;;;;;;;;;5035865;28;20166;-91
2022/11/11 03:56:47;;;;;;;3.45;3.13;;;;;;;;;;5018216;28;20562;-92
2022/11/11 03:59:13;;;;;;;3.80;3.22;;;;;;;;;;5036024;28;20520;-90
2022/11/11 04:18:09;;;;;;;4.45;4.05;;;;;;;;;;5034991;28;20528;-91
2022/11/11 04:23:19;;;;;;;6.38;4.57;;;;;;;;;;5034470;28;20649;-91
2022/11/11 04:25:47;;;;;;;6.72;4.45;;;;;;;;;;5017449;28;20185;-91
2022/11/11 04:30:58;;;;;;;7.88;4.55;;;;;;;;;;5029454;28;20760;-87
2022/11/11 04:33:24;;;;;;;6.30;4.20;;;;;;;;;;5029086;28;20189;-90
2022/11/11 04:35:50;;;;;;;6.60;4.10;;;;;;;;;;5032522;28;20182;-89
2022/11/11 04:41:04;;;;;;;5.68;3.83;;;;;;;;;;5030447;28;20181;-90
2022/11/11 04:43:30;;;;;;;7.35;4.45;;;;;;;;;;5018158;28;20212;-91
2022/11/11 04:46:00;;;;;;;7.55;5.15;;;;;;;;;;5035042;28;20200;-91
2022/11/11 04:48:26;;;;;;;8.20;4.30;;;;;;;;;;5038143;28;20269;-90
2022/11/11 04:50:52;;;;;;;7.05;4.05;;;;;;;;;;5040005;28;20198;-90
2022/11/11 04:53:19;;;;;;;5.05;4.55;;;;;;;;;;5043468;28;20189;-88
2022/11/11 04:58:31;;;;;;;5.78;4.50;;;;;;;;;;5036902;28;20181;-88
2022/11/11 05:00:57;;;;;;;6.25;3.78;;;;;;;;;;5034794;28;20586;-89
2022/11/11 05:03:23;;;;;;;6.60;4.00;;;;;;;;;;5033627;28;20537;-90
2022/11/11 05:11:21;;;;;;;11.50;4.90;;;;;;;;;;5034507;28;20294;-87
2022/11/11 05:22:06;;;;;;;6.13;4.32;;;;;;;;;;5034251;28;20169;-85
2022/11/11 05:27:17;;;;;;;5.57;4.55;;;;;;;;;;5035095;28;20192;-88
2022/11/11 05:29:43;;;;;;;7.22;4.82;;;;;;;;;;5035327;28;20280;-88
2022/11/11 05:32:09;;;;;;;6.07;4.53;;;;;;;;;;5055821;28;20181;-88
2022/11/11 05:34:35;;;;;;;7.43;5.30;;;;;;;;;;5060393;28;20252;-90
2022/11/11 05:37:01;;;;;;;6.82;4.85;;;;;;;;;;5059053;28;20232;-87
2022/11/11 05:39:27;;;;;;;8.23;5.45;;;;;;;;;;5058143;28;20571;-88
2022/11/11 05:41:53;;;;;;;9.20;5.30;;;;;;;;;;5057726;28;20219;-88
2022/11/11 05:44:19;;;;;;;8.20;6.22;;;;;;;;;;5040044;28;20180;-88
2022/11/11 05:46:45;;;;;;;5.22;4.53;;;;;;;;;;5056651;28;20172;-90
2022/11/11 05:49:14;;;;;;;10.88;5.80;;;;;;;;;;5058663;28;20501;-93
2022/11/11 05:51:40;;;;;;;10.85;6.03;;;;;;;;;;5058367;28;20189;-89
2022/11/11 05:54:06;;;;;;;10.07;6.30;;;;;;;;;;5058131;28;20173;-90
2022/11/11 05:56:32;;;;;;;8.30;5.38;;;;;;;;;;5058450;28;20269;-91
2022/11/11 05:58:59;;;;;;;8.35;5.75;;;;;;;;;;5056828;28;20177;-91
2022/11/11 06:01:25;;;;;;;14.15;6.55;;;;;;;;;;5057650;28;20751;-90
2022/11/11 06:03:51;;;;;;;7.03;5.35;;;;;;;;;;5039407;28;20192;-91
2022/11/11 06:06:17;;;;;;;7.70;6.03;;;;;;;;;;5056940;28;20185;-90
2022/11/11 06:08:43;;;;;;;8.70;7.15;;;;;;;;;;5056344;28;20177;-87
2022/11/11 06:11:09;;;;;;;8.65;5.53;;;;;;;;;;5057581;28;20202;-92
2022/11/11 06:13:35;;;;;;;8.25;4.75;;;;;;;;;;5063478;28;20256;-90
2022/11/11 06:16:01;;;;;;;6.88;5.72;;;;;;;;;;5061785;28;20182;-92
2022/11/11 06:18:27;;;;;;;9.85;6.43;;;;;;;;;;5062495;28;20173;-92
2022/11/11 06:20:57;;;;;;;7.07;5.32;;;;;;;;;;5059557;28;20182;-92
2022/11/11 06:23:23;;;;;;;9.80;4.85;;;;;;;;;;5058386;28;20206;-93
2022/11/11 06:28:34;;;;;;;5.78;4.45;;;;;;;;;;5059362;28;20188;-92
2022/11/11 06:31:00;;;;;;;6.40;5.03;;;;;;;;;;5057640;28;20735;-93
2022/11/11 06:33:26;;;;;;;6.78;4.70;;;;;;;;;;5059129;28;20199;-93
2022/11/11 06:35:52;;;;;;;9.75;5.30;;;;;;;;;;5059396;28;20169;-93
2022/11/11 06:38:18;;;;;;;6.97;4.43;;;;;;;;;;5060430;28;20448;-93
2022/11/11 06:40:45;;;;;;;8.18;5.35;;;;;;;;;;5063053;28;20197;-87
2022/11/11 06:43:11;;;;;;;6.78;5.10;;;;;;;;;;5058943;28;20248;-91
2022/11/11 06:45:37;;;;;;;8.95;5.00;;;;;;;;;;5056724;28;20199;-89
2022/11/11 06:48:04;;;;;;;7.55;4.75;;;;;;;;;;5056376;28;20218;-91
2022/11/11 06:50:31;;;;;;;9.55;5.35;;;;;;;;;;5038537;28;20692;-90
2022/11/11 06:53:03;;;;;;;6.25;5.35;;;;;;;;;;5056177;28;20173;-90
2022/11/11 06:55:29;;;;;;;8.73;5.07;;;;;;;;;;5056272;28;20168;-90
2022/11/11 06:57:55;;;;;;;12.02;5.30;;;;;;;;;;5054215;28;20703;-90
2022/11/11 07:00:21;;;;;;;6.97;5.38;;;;;;;;;;5037751;28;20288;-89
2022/11/11 07:02:54;;;;;;;8.02;5.32;;;;;;;;;;5054501;28;20268;-90
2022/11/11 07:05:20;;;;;;;9.20;6.72;;;;;;;;;;5056207;28;20162;-89
2022/11/11 07:07:46;;;;;;;8.82;5.70;;;;;;;;;;5055418;28;20193;-86
2022/11/11 07:10:13;;;;;;;10.95;6.30;;;;;;;;;;5054625;28;20201;-89
2022/11/11 07:12:40;;;;;;;7.18;5.40;;;;;;;;;;5038001;28;20182;-90
2022/11/11 07:15:07;;;;;;;9.32;6.43;;;;;;;;;;5055377;28;20629;-89
2022/11/11 07:17:33;;;;;;;10.80;6.35;;;;;;;;;;5038365;28;20614;-90
2022/11/11 07:19:59;;;;;;;7.40;5.47;;;;;;;;;;5037977;28;20212;-81
2022/11/11 07:22:25;;;;;;;8.50;6.00;;;;;;;;;;5053666;28;20180;-81
2022/11/11 07:24:51;;;;;;;8.52;6.70;;;;;;;;;;5053964;28;20169;-81
2022/11/11 07:27:17;;;;;;;10.10;6.00;;;;;;;;;;5053595;28;20166;-80
2022/11/11 07:29:43;;;;;;;9.13;7.22;;;;;;;;;;5053286;28;20210;-81
2022/11/11 07:32:09;;;;;;;10.38;6.38;;;;;;;;;;5053533;28;20228;-81
2022/11/11 07:34:35;;;;;;;10.32;6.47;;;;;;;;;;5053832;28;20177;-82
2022/11/11 07:37:01;;;;;;;9.13;6.20;;;;;;;;;;5036467;28;20196;-81
2022/11/11 07:39:27;;;;;;;13.88;6.07;;;;;;;;;;5054331;28;20622;-80
2022/11/11 07:41:53;;;;;;;11.57;7.25;;;;;;;;;;5050511;28;20189;-80
2022/11/11 07:44:19;;;;;;;9.43;5.95;;;;;;;;;;5055005;28;20188;-81
2022/11/11 07:46:45;;;;;;;8.70;5.70;;;;;;;;;;5054010;28;20201;-81
2022/11/11 07:49:11;;;;;;;7.68;5.95;;;;;;;;;;5035798;28;20236;-80
2022/11/11 07:51:38;;;;;;;8.90;6.55;;;;;;;;;;5054565;28;20243;-80
2022/11/11 07:54:04;;;;;;;7.60;6.20;;;;;;;;;;5054106;28;20173;-80
2022/11/11 07:56:30;;;;;;;11.57;6.57;;;;;;;;;;5054433;28;20173;-78
2022/11/11 07:58:56;;;;;;;7.72;5.68;;;;;;;;;;5053005;28;20206;-79
2022/11/11 08:01:22;;;;;;;9.18;5.35;;;;;;;;;;5036361;28;20232;-80
2022/11/11 08:03:48;;;;;;;6.70;4.82;;;;;;;;;;5053256;28;20180;-80
2022/11/11 08:06:18;;;;;;;10.07;6.20;;;;;;;;;;5053410;28;20179;-79
2022/11/11 08:08:44;;;;;;;9.40;5.95;;;;;;;;;;5052830;28;20609;-79
2022/11/11 08:11:10;;;;;;;8.05;5.82;;;;;;;;;;5051663;28;20212;-80
2022/11/11 08:13:39;;;;;;;7.30;6.03;;;;;;;;;;5053668;28;20238;-81
2022/11/11 08:16:06;;;;;;;10.77;6.03;;;;;;;;;;5036044;28;20181;-81
2022/11/11 08:18:33;;;;;;;9.63;6.70;;;;;;;;;;5053835;28;20506;-80
2022/11/11 08:21:00;;;;;;;10.02;7.43;;;;;;;;;;5036258;28;20276;-81
2022/11/11 08:23:32;;;;;;;9.10;6.25;;;;;;;;;;5053717;28;20626;-80
2022/11/11 08:26:02;;;;;;;8.30;5.65;;;;;;;;;;5052220;28;20212;-80
2022/11/11 08:28:29;;;;;;;8.75;5.25;;;;;;;;;;5053265;28;20587;-81
2022/11/11 08:30:57;;;;;;;9.05;6.35;;;;;;;;;;5053151;28;20201;-80
2022/11/11 08:33:23;;;;;;;7.28;5.20;;;;;;;;;;5052797;28;20196;-81
2022/11/11 08:35:49;;;;;;;9.18;4.68;;;;;;;;;;5052416;28;20185;-81
2022/11/11 08:38:15;;;;;;;8.82;5.65;;;;;;;;;;5052711;28;20174;-81
2022/11/11 08:40:41;;;;;;;8.20;5.32;;;;;;;;;;5052463;28;20540;-81
2022/11/11 08:43:07;;;;;;;7.43;5.55;;;;;;;;;;5053202;28;20788;-81
2022/11/11 08:45:33;;;;;;;10.55;5.80;;;;;;;;;;5052373;28;20189;-81
2022/11/11 08:47:59;;;;;;;7.55;5.25;;;;;;;;;;5035515;28;20176;-81
2022/11/11 08:50:25;;;;;;;7.22;5.53;;;;;;;;;;5053744;28;20193;-81
2022/11/11 08:52:52;;;;;;;8.38;5.32;;;;;;;;;;5052661;28;20539;-80
2022/11/11 08:55:18;;;;;;;6.88;4.88;;;;;;;;;;5053626;28;20173;-81
2022/11/11 08:57:45;;;;;;;5.55;4.85;;;;;;;;;;5053251;28;20269;-81
2022/11/11 09:00:11;;;;;;;5.90;4.35;;;;;;;;;;5051793;28;20209;-81
2022/11/11 09:02:38;;;;;;;9.02;5.20;;;;;;;;;;5035771;28;20660;-81
2022/11/11 09:05:05;;;;;;;7.90;4.80;;;;;;;;;;5056226;28;20185;-82
2022/11/11 09:07:32;;;;;;;6.72;4.05;;;;;;;;;;5057502;28;20613;-82
2022/11/11 09:09:58;;;;;;;6.43;4.55;;;;;;;;;;5055656;28;20676;-82
2022/11/11 09:12:24;;;;;;;6.85;4.70;;;;;;;;;;5039261;28;20213;-82
2022/11/11 09:14:50;;;;;;;7.07;4.75;;;;;;;;;;5039254;28;20192;-82
2022/11/11 09:17:16;;;;;;;5.30;4.10;;;;;;;;;;5055466;28;20199;-81
2022/11/11 09:19:42;;;;;;;7.40;4.88;;;;;;;;;;5055632;28;20189;-81
2022/11/11 09:22:08;;;;;;;6.00;3.97;;;;;;;;;;5055763;28;20220;-81
2022/11/11 09:24:34;;;;;;;6.05;4.65;;;;;;;;;;5056797;28;20166;-82
2022/11/11 09:27:00;;;;;;;5.50;4.55;;;;;;;;;;5056599;28;20201;-81
2022/11/11 09:29:26;;;;;;;5.27;4.10;;;;;;;;;;5039380;28;20243;-81
2022/11/11 09:31:52;;;;;;;9.60;4.32;;;;;;;;;;5055767;28;20458;-82
2022/11/11 09:34:18;;;;;;;6.03;4.15;;;;;;;;;;5055375;28;20528;-81
2022/11/11 09:36:44;;;;;;;7.00;4.50;;;;;;;;;;5056742;28;20527;-82
2022/11/11 09:39:10;;;;;;;7.00;4.90;;;;;;;;;;5055217;28;20197;-81
2022/11/11 09:41:50;;;;;;;4.88;3.60;;;;;;;;;;5055341;28;20412;-80
2022/11/11 09:44:36;;;;;;;4.33;3.93;;;;;;;;;;5055298;28;20173;-80
2022/11/11 09:47:21;;;;;;;6.83;3.43;;;;;;;;;;5044459;28;20450;-81
2022/11/11 09:49:53;;;;;;;7.57;4.73;;;;;;;;;;5055363;28;20456;-82
2022/11/11 09:52:21;;;;;;;6.80;3.90;;;;;;;;;;5055525;28;20416;-82
2022/11/11 09:54:53;;;;;;;4.80;3.63;;;;;;;;;;5056389;28;20411;-81
2022/11/11 09:57:40;;;;;;;10.07;4.80;;;;;;;;;;5056672;28;20500;-81
2022/11/11 10:00:07;;;;;;;7.67;4.90;;;;;;;;;;5056541;28;20431;-81
2022/11/11 10:02:42;;;;;;;4.90;3.80;;;;;;;;;;5054875;28;20472;-82
2022/11/11 10:05:12;;;;;;;5.73;4.20;;;;;;;;;;5055963;28;20914;-81
2022/11/11 10:07:41;;;;;;;4.50;3.83;;;;;;;;;;5055173;28;20442;-82
2022/11/11 10:10:11;;;;;;;9.60;4.27;;;;;;;;;;5055866;28;20460;-82
2022/11/11 10:12:42;;;;;;;4.90;3.90;;;;;;;;;;5054924;28;20474;-82
2022/11/11 10:15:13;;;;;;;5.30;3.90;;;;;;;;;;5053528;28;20906;-81
2022/11/11 10:17:53;;;;;;;7.80;4.60;;;;;;;;;;5054715;28;20412;-82
2022/11/11 10:20:23;;;;;;;9.07;4.90;;;;;;;;;;5054457;28;20510;-82
2022/11/11 10:22:51;;;;;;;7.80;5.33;;;;;;;;;;5054428;28;20430;-82
2022/11/11 10:25:17;;;;;;;6.37;4.07;;;;;;;;;;5055907;28;20400;-82
2022/11/11 10:27:44;;;;;;;8.23;5.87;;;;;;;;;;5054524;28;20843;-82
2022/11/11 10:30:16;;;;;;;6.93;4.83;;;;;;;;;;5055791;28;20470;-82
2022/11/11 10:32:44;;;;;;;5.40;3.40;;;;;;;;;;5056008;28;20419;-82
2022/11/11 10:35:16;;;;;;;5.33;4.40;;;;;;;;;;5055345;28;20404;-82
2022/11/11 10:37:43;;;;;;;5.50;3.80;;;;;;;;;;5054849;28;20456;-83
2022/11/11 10:40:18;;;;;;;4.00;3.50;;;;;;;;;;5055330;28;20507;-82
2022/11/11 10:42:44;;;;;;;8.17;6.43;;;;;;;;;;5054308;28;20416;-81
2022/11/11 10:45:14;;;;;;;8.07;4.30;;;;;;;;;;5056008;28;20744;-81
2022/11/11 10:47:43;;;;;;;4.97;3.50;;;;;;;;;;5056768;28;20400;-81
2022/11/11 10:50:09;;;;;;;7.37;4.13;;;;;;;;;;5054402;28;20489;-82
2022/11/11 10:52:36;;;;;;;6.17;3.70;;;;;;;;;;5055335;28;20413;-82
2022/11/11 10:55:29;;;;;;;3.90;3.33;;;;;;;;;;5055478;28;20404;-82
2022/11/11 10:58:18;;;;;;;5.50;3.30;;;;;;;;;;5051274;28;20412;-83
2022/11/11 11:00:45;;;;;;;4.13;3.73;;;;;;;;;;5045979;28;20475;-83
2022/11/11 11:03:11;;;;;;;6.20;4.00;;;;;;;;;;5053615;28;20402;-83
2022/11/11 11:05:42;;;;;;;4.30;3.17;;;;;;;;;;5053879;28;20486;-83
2022/11/11 11:08:11;;;;;;;7.97;3.80;;;;;;;;;;5055519;28;20918;-82
2022/11/11 11:10:58;;;;;;;9.07;3.17;;;;;;;;;;5053950;28;20456;-82
2022/11/11 11:13:34;;;;;;;3.17;2.83;;;;;;;;;;5053458;28;20416;-83
2022/11/11 11:16:04;;;;;;;3.90;3.07;;;;;;;;;;5054815;28;20419;-82
2022/11/11 11:18:30;;;;;;;4.27;2.80;;;;;;;;;;5054855;28;20404;-82
2022/11/11 11:21:03;;;;;;;7.67;6.17;;;;;;;;;;5053482;28;20795;-82
2022/11/11 11:23:37;;;;;;;9.33;6.23;;;;;;;;;;5053149;28;20415;-82
2022/11/11 11:26:04;;;;;;;6.60;4.10;;;;;;;;;;5053187;28;20404;-82
2022/11/11 11:28:30;;;;;;;3.87;3.03;;;;;;;;;;5052820;28;20408;-82
2022/11/11 11:31:14;;;;;;;4.40;3.30;;;;;;;;;;5054383;28;20911;-83
2022/11/11 11:33:51;;;;;;;4.63;3.60;;;;;;;;;;5053247;28;20601;-83
2022/11/11 11:36:18;;;;;;;8.50;3.00;;;;;;;;;;5053966;28;20404;-83
2022/11/11 11:38:51;;;;;;;4.30;2.63;;;;;;;;;;5052786;28;20740;-82
2022/11/11 11:41:18;;;;;;;2.20;2.00;;;;;;;;;;5052644;28;20469;-82
2022/11/11 11:43:44;;;;;;;2.47;2.10;;;;;;;;;;5053103;28;20919;-83
2022/11/11 11:46:34;;;;;;;2.40;2.13;;;;;;;;;;5053578;28;20412;-83
2022/11/11 11:49:35;;;;;;;3.87;2.20;;;;;;;;;;5045746;28;20776;-83
2022/11/11 11:52:04;;;;;;;5.03;2.40;;;;;;;;;;4992111;28;20452;-83
2022/11/11 11:54:39;;;;;;;4.10;2.57;;;;;;;;;;5042085;28;20389;-83
2022/11/11 11:57:15;;;;;;;2.93;2.40;;;;;;;;;;5053327;28;20408;-83
2022/11/11 11:59:56;;;;;;;3.13;1.97;;;;;;;;;;5053961;28;20415;-83
2022/11/11 12:02:42;;;;;;;3.97;2.33;;;;;;;;;;5051836;28;21013;-83
2022/11/11 12:05:08;;;;;;;4.47;2.77;;;;;;;;;;5042833;28;20423;-83
2022/11/11 12:08:03;;;;;;;2.93;2.00;;;;;;;;;;5052435;28;20753;-83
2022/11/11 12:10:39;;;;;;;2.80;2.10;;;;;;;;;;5039258;28;20796;-83
2022/11/11 12:13:08;;;;;;;5.27;2.53;;;;;;;;;;5052148;28;20827;-82
2022/11/11 12:15:39;;;;;;;2.30;1.67;;;;;;;;;;5053232;28;20415;-83
2022/11/11 12:18:17;;;;;;;4.30;2.40;;;;;;;;;;5053099;28;20411;-82
2022/11/11 12:20:46;;;;;;;3.57;2.30;;;;;;;;;;5053089;28;20418;-82
2022/11/11 12:23:31;;;;;;;4.40;2.80;;;;;;;;;;5051283;28;20478;-83
2022/11/11 12:26:03;;;;;;;8.83;3.40;;;;;;;;;;5052395;28;20415;-83
2022/11/11 12:28:48;;;;;;;4.57;2.87;;;;;;;;;;5052857;28;20409;-83
2022/11/11 12:31:14;;;;;;;4.67;4.27;;;;;;;;;;5052692;28;20452;-83
2022/11/11 12:33:41;;;;;;;4.10;2.30;;;;;;;;;;5051218;28;20403;-83
2022/11/11 12:36:15;;;;;;;3.87;2.60;;;;;;;;;;5052151;28;20415;-83
2022/11/11 12:38:52;;;;;;;4.40;2.03;;;;;;;;;;5054933;28;20784;-83
2022/11/11 12:41:26;;;;;;;3.47;1.67;;;;;;;;;;5059342;28;20415;-82
2022/11/11 12:43:52;;;;;;;3.60;1.80;;;;;;;;;;5059459;28;20753;-83
2022/11/11 12:46:37;;;;;;;3.97;2.57;;;;;;;;;;5058113;28;20423;-83
2022/11/11 12:49:21;;;;;;;3.27;1.87;;;;;;;;;;5058467;28;20732;-83
2022/11/11 12:52:10;;;;;;;3.47;1.83;;;;;;;;;;5058146;28;20442;-83
2022/11/11 12:54:36;;;;;;;4.10;2.30;;;;;;;;;;5057501;28;20444;-83
2022/11/11 12:57:14;;;;;;;4.30;1.77;;;;;;;;;;5058246;28;20423;-83
2022/11/11 12:59:46;;;;;;;2.60;1.47;;;;;;;;;;5058360;28;20414;-83
2022/11/11 13:02:37;;;;;;;5.17;2.00;;;;;;;;;;5058770;28;20547;-83
2022/11/11 13:05:12;;;;;;;4.23;2.80;;;;;;;;;;5059886;28;20379;-83
2022/11/11 13:07:57;;;;;;;3.03;1.60;;;;;;;;;;5059031;28;20409;-83
2022/11/11 13:10:41;;;;;;;3.27;2.30;;;;;;;;;;5060233;28;20505;-83
2022/11/11 13:13:26;;;;;;;3.63;1.73;;;;;;;;;;5058310;28;20390;-83
2022/11/11 13:15:52;;;;;;;3.67;2.00;;;;;;;;;;5051912;28;20446;-83
2022/11/11 13:18:20;;;;;;;5.40;1.80;;;;;;;;;;5053605;28;20525;-83
2022/11/11 13:20:51;;;;;;;4.60;1.73;;;;;;;;;;5051429;28;20498;-83
2022/11/11 13:23:17;;;;;;;2.77;1.93;;;;;;;;;;5051521;28;20430;-83
2022/11/11 13:25:47;;;;;;;4.10;1.90;;;;;;;;;;5054314;28;20389;-82
2022/11/11 13:28:34;;;;;;;2.33;1.60;;;;;;;;;;5053242;28;21019;-83
2022/11/11 13:31:18;;;;;;;2.03;1.20;;;;;;;;;;5048167;28;20514;-84
2022/11/11 13:33:47;;;;;;;5.07;2.27;;;;;;;;;;5057252;28;20510;-83
2022/11/11 13:36:17;;;;;;;5.40;1.73;;;;;;;;;;5058419;28;20491;-82
2022/11/11 13:38:43;;;;;;;2.47;1.73;;;;;;;;;;5057745;28;20457;-83
2022/11/11 13:41:09;;;;;;;3.83;1.97;;;;;;;;;;5057072;28;20781;-83
2022/11/11 13:43:43;;;;;;;2.90;1.57;;;;;;;;;;5057061;28;20386;-84
2022/11/11 13:46:28;;;;;;;2.30;1.40;;;;;;;;;;5056987;28;20387;-82
2022/11/11 13:48:55;;;;;;;2.63;1.93;;;;;;;;;;5058705;28;20396;-83
2022/11/11 13:51:24;;;;;;;1.87;1.30;;;;;;;;;;5055487;28;20455;-83
2022/11/11 13:53:50;;;;;;;2.20;1.50;;;;;;;;;;5055270;28;20436;-83
2022/11/11 13:56:27;;;;;;;4.63;1.50;;;;;;;;;;5053674;28;20416;-83
2022/11/11 13:58:55;;;;;;;2.43;1.50;;;;;;;;;;5054946;28;20461;-83
2022/11/11 14:01:21;;;;;;;2.87;1.60;;;;;;;;;;5055137;28;20590;-83
2022/11/11 14:03:50;;;;;;;4.80;1.43;;;;;;;;;;5055412;28;20392;-83
2022/11/11 14:06:16;;;;;;;1.67;1.30;;;;;;;;;;5054575;28;20427;-83
2022/11/11 14:08:51;;;;;;;2.00;1.10;;;;;;;;;;5053531;28;20906;-83
2022/11/11 14:11:25;;;;;;;2.10;1.40;;;;;;;;;;5054776;28;20429;-82
2022/11/11 14:13:52;;;;;;;1.37;1.20;;;;;;;;;;5054153;28;20423;-80
2022/11/11 14:16:33;;;;;;;4.93;1.63;;;;;;;;;;5054789;28;20412;-81
2022/11/11 14:19:12;;;;;;;3.90;1.30;;;;;;;;;;5054077;28;20722;-80
2022/11/11 14:21:43;;;;;;;3.47;1.60;;;;;;;;;;5054160;28;20401;-80
2022/11/11 14:24:10;;;;;;;2.57;1.40;;;;;;;;;;5053723;28;20402;-81
2022/11/11 14:26:37;;;;;;;2.80;1.50;;;;;;;;;;5037375;28;20424;-81
2022/11/11 14:29:03;;;;;;;2.43;1.33;;;;;;;;;;5053658;28;20408;-80
2022/11/11 14:31:55;;;;;;;5.93;1.47;;;;;;;;;;5053265;28;20517;-80
2022/11/11 14:34:33;;;;;;;2.00;1.20;;;;;;;;;;5050598;28;20470;-80
2022/11/11 14:37:02;;;;;;;4.80;1.27;;;;;;;;;;5053889;28;20411;-80
2022/11/11 14:39:28;;;;;;;2.60;1.17;;;;;;;;;;5053540;28;20418;-80
2022/11/11 14:41:54;;;;;;;2.40;1.50;;;;;;;;;;5053737;28;20830;-80
2022/11/11 14:44:26;;;;;;;2.20;1.10;;;;;;;;;;5036869;28;20401;-81
2022/11/11 14:47:04;;;;;;;2.50;1.63;;;;;;;;;;5053583;28;20412;-81
2022/11/11 14:49:51;;;;;;;2.27;1.73;;;;;;;;;;5054233;28;20761;-80
2022/11/11 14:52:36;;;;;;;4.33;1.70;;;;;;;;;;5053021;28;20441;-80
2022/11/11 14:55:02;;;;;;;3.70;1.60;;;;;;;;;;5053560;28;20412;-81
2022/11/11 14:57:35;;;;;;;7.90;1.90;;;;;;;;;;5053150;28;20395;-81
2022/11/11 15:00:02;;;;;;;3.63;2.20;;;;;;;;;;5053185;28;20925;-81
2022/11/11 15:02:35;;;;;;;3.13;1.63;;;;;;;;;;5052405;28;20460;-82
2022/11/11 15:05:02;;;;;;;2.33;2.13;;;;;;;;;;5053205;28;20795;-80
2022/11/11 15:08:01;;;;;;;2.37;1.53;;;;;;;;;;5054401;28;20431;-81
2022/11/11 15:10:39;;;;;;;4.27;2.20;;;;;;;;;;5019939;28;20435;-80
2022/11/11 15:13:08;;;;;;;4.57;2.07;;;;;;;;;;5054552;28;20427;-80
2022/11/11 15:15:41;;;;;;;4.87;2.60;;;;;;;;;;5052690;28;21303;-80
2022/11/11 15:18:07;;;;;;;3.67;2.27;;;;;;;;;;5052902;28;20414;-80
2022/11/11 15:20:52;;;;;;;7.33;2.77;;;;;;;;;;5052698;28;20435;-80
2022/11/11 15:23:27;;;;;;;3.90;2.57;;;;;;;;;;5052503;28;20934;-80
2022/11/11 15:25:53;;;;;;;3.90;3.03;;;;;;;;;;5052378;28;20416;-80
2022/11/11 15:28:19;;;;;;;6.30;3.20;;;;;;;;;;5052460;28;20419;-81
2022/11/11 15:30:57;;;;;;;5.50;3.40;;;;;;;;;;5052703;28;20471;-81
2022/11/11 15:33:30;;;;;;;6.40;3.03;;;;;;;;;;5053190;28;20382;-80
2022/11/11 15:36:14;;;;;;;7.60;5.47;;;;;;;;;;5047711;28;20396;-80
2022/11/11 15:38:41;;;;;;;6.70;5.13;;;;;;;;;;5046948;28;20857;-81
2022/11/11 15:41:20;;;;;;;5.83;3.27;;;;;;;;;;5046305;28;20476;-80
2022/11/11 15:43:46;;;;;;;5.13;1.90;;;;;;;;;;5046458;28;21130;-80
2022/11/11 15:46:20;;;;;;;4.70;2.40;;;;;;;;;;5045300;28;20702;-80
2022/11/11 15:48:46;;;;;;;2.80;2.43;;;;;;;;;;5048469;28;20396;-81
2022/11/11 15:51:16;;;;;;;4.97;2.20;;;;;;;;;;5051847;28;20456;-81
2022/11/11 15:53:42;;;;;;;4.43;2.53;;;;;;;;;;5051511;28;20420;-80
2022/11/11 15:56:08;;;;;;;5.17;2.53;;;;;;;;;;5053393;28;20404;-80
2022/11/11 15:58:34;;;;;;;5.47;2.70;;;;;;;;;;5053000;28;20775;-79
2022/11/11 16:01:03;;;;;;;4.80;2.67;;;;;;;;;;5055977;28;20460;-84
2022/11/11 16:03:41;;;;;;;9.80;4.40;;;;;;;;;;5053599;28;20730;-85
2022/11/11 16:06:10;;;;;;;10.37;3.77;;;;;;;;;;5052658;28;20419;-86
2022/11/11 16:08:36;;;;;;;6.10;3.50;;;;;;;;;;5051955;28;20383;-85
2022/11/11 16:11:02;;;;;;;8.87;3.40;;;;;;;;;;5036040;28;20530;-85
2022/11/11 16:13:34;;;;;;;10.87;3.90;;;;;;;;;;5052349;28;20416;-86